アティラウ の空港の天気 - METARとTAF

Atyrau Airport ( UATG / GUW ) - カザフスタン Atyrau
飛行場実況気象(Metar)
観測時間04/26 16:00 ORAT (04/26 11:00 UTC)
風向・風速南南西 9m/s
視程10km以上
天気現象
なし
気温17℃
湿度52%
気圧1018hPa
METARUATG 261100Z 21009MPS CAVOK 17/07 Q1018 R14/CLRD70 NOSIG RMK QFE766/1021
過去の天気等 Google飛行場航空写真 Wunderground天気予報

過去48時間のMETAR

飛行場予報(TAF)
発表時間: 4/26 10:02 ORAT (4/26 05:02 UTC)
予報対象時間: 26日11時 ORAT ~ 27日11時 ORAT
風向・風速南南西 11m/s
視程10km以上
全天の8割程度の積乱雲 雲底高度 910m
26日21時 ORAT から
風向・風速南南西 5m/s
視程3,000m
天気現象もや
全天の8割程度の雲 雲底高度 300m
TAF UATG 260502Z 2606/2706 21011MPS 9999 BKN030CB TX18/2612Z TN11/2702Z
FM261600 21005MPS 3000 BR BKN010